Terminal Aerodrome Forecast
Issued by NWS Greer, SC

Home | Current Version | Previous Version | Text Only | Print | Product List | Glossary On
Versions: 1 2 3 4 5 6 7 8 9 10 11 12 13
000
FTUS42 KGSP 260527
TAFAVL
TAF
KAVL 260527Z 2606/2706 16003KT P6SM VCSH BKN045
     FM260700 VRB02KT 6SM BR SCT008 BKN025
      TEMPO 2610/2613 3SM BR BKN008 OVC015
     FM261500 17004KT P6SM BKN035 BKN250 PROB30 2615/2621 4SM -TSRA
      OVC025CB
     FM262200 19005KT P6SM -SHRA VCTS BKN050CB
     FM270300 VRB02KT 5SM -SHRA BKN010=

USA.gov is the U.S. government's official web portal to all federal, state and local government web resources and services.